createdAt,value
2023-04-02T00:00:00.687Z,3.25
2023-04-02T00:02:27.246Z,3.35
2023-04-02T00:04:53.785Z,3.04
2023-04-02T00:07:20.167Z,2.96
2023-04-02T00:09:46.553Z,2.82
2023-04-02T00:12:12.926Z,2.82
2023-04-02T00:14:39.611Z,2.90
2023-04-02T00:17:05.949Z,2.83
2023-04-02T00:19:32.347Z,2.46
2023-04-02T00:21:58.779Z,2.79
2023-04-02T00:24:25.117Z,2.75
2023-04-02T00:26:51.454Z,2.71
2023-04-02T00:29:17.778Z,2.48
2023-04-02T00:31:44.229Z,2.45
2023-04-02T00:34:10.573Z,2.36
2023-04-02T00:36:36.944Z,2.52
2023-04-02T00:39:03.538Z,2.37
2023-04-02T00:41:29.892Z,2.63
2023-04-02T00:43:56.285Z,2.47
2023-04-02T00:46:22.660Z,2.36
2023-04-02T00:48:49.024Z,2.26
2023-04-02T00:51:15.420Z,2.44
2023-04-02T00:53:41.801Z,2.12
2023-04-02T00:56:08.311Z,2.10
2023-04-02T00:58:34.696Z,2.22
2023-04-02T01:01:01.104Z,2.19
2023-04-02T01:03:27.616Z,2.21
2023-04-02T01:05:54.128Z,2.23
2023-04-02T01:08:20.466Z,2.07
2023-04-02T01:10:47.002Z,1.89
2023-04-02T01:13:13.458Z,1.97
2023-04-02T01:15:40.078Z,2.09
2023-04-02T01:18:06.517Z,2.09
2023-04-02T01:20:32.984Z,2.18
2023-04-02T01:22:59.424Z,1.97
2023-04-02T01:25:25.784Z,1.93
2023-04-02T01:27:52.164Z,1.85
2023-04-02T01:30:18.560Z,1.88
2023-04-02T01:32:45.066Z,1.83
2023-04-02T01:35:11.587Z,2.02
2023-04-02T01:37:37.975Z,1.79
2023-04-02T01:40:04.282Z,1.66
2023-04-02T01:42:30.667Z,1.79
2023-04-02T01:44:56.997Z,1.61
2023-04-02T01:47:23.323Z,1.77
2023-04-02T01:49:49.653Z,1.61
2023-04-02T01:52:16.038Z,1.78
2023-04-02T01:54:42.379Z,1.56
2023-04-02T01:57:08.763Z,1.57
2023-04-02T01:59:35.151Z,1.55
2023-04-02T02:02:01.605Z,1.64
2023-04-02T02:04:27.982Z,1.44
2023-04-02T02:06:54.356Z,1.54
2023-04-02T02:09:20.693Z,1.42
2023-04-02T02:11:47.124Z,1.42
2023-04-02T02:14:13.459Z,1.31
2023-04-02T02:16:39.881Z,1.40
2023-04-02T02:19:06.256Z,1.47
2023-04-02T02:21:32.585Z,1.26
2023-04-02T02:23:58.994Z,1.37
2023-04-02T02:26:25.375Z,1.31
2023-04-02T02:28:51.795Z,1.35
2023-04-02T02:31:18.186Z,1.24
2023-04-02T02:33:44.593Z,1.25
2023-04-02T02:36:11.029Z,1.28
2023-04-02T02:38:37.385Z,1.24
2023-04-02T02:41:03.744Z,1.15
2023-04-02T02:43:30.178Z,1.13
2023-04-02T02:45:56.595Z,1.18
2023-04-02T02:48:23.005Z,1.07
2023-04-02T02:50:49.337Z,1.09
2023-04-02T02:53:15.705Z,1.15
2023-04-02T02:55:42.074Z,1.11
2023-04-02T02:58:08.426Z,0.99
2023-04-02T03:00:34.745Z,0.95
2023-04-02T03:03:01.244Z,0.91
2023-04-02T03:05:27.716Z,0.98
2023-04-02T03:07:54.076Z,0.90
2023-04-02T03:10:20.396Z,0.97
2023-04-02T03:12:46.769Z,0.80
2023-04-02T03:15:13.089Z,0.90
2023-04-02T03:17:39.409Z,0.81
2023-04-02T03:20:05.945Z,0.83
2023-04-02T03:22:32.286Z,0.76
2023-04-02T03:24:58.669Z,0.72
2023-04-02T03:27:24.992Z,0.70
2023-04-02T03:29:51.368Z,0.71
2023-04-02T03:32:17.680Z,0.80
2023-04-02T03:34:44.025Z,0.75
2023-04-02T03:37:10.380Z,0.71
2023-04-02T03:39:36.912Z,0.67
2023-04-02T03:42:03.396Z,0.69
2023-04-02T03:44:29.770Z,0.62
2023-04-02T03:46:56.089Z,0.64
2023-04-02T03:49:22.410Z,0.68
2023-04-02T03:51:48.716Z,0.71
2023-04-02T03:54:15.058Z,0.60
2023-04-02T03:56:41.392Z,0.72
2023-04-02T03:59:07.730Z,0.72
2023-04-02T04:01:34.127Z,0.65
2023-04-02T04:04:00.569Z,0.62
2023-04-02T04:06:26.933Z,0.60
2023-04-02T04:08:53.382Z,0.68
2023-04-02T04:11:19.755Z,0.81
2023-04-02T04:13:46.145Z,0.80
2023-04-02T04:16:12.571Z,0.83
2023-04-02T04:18:38.999Z,0.80
2023-04-02T04:21:05.315Z,0.82
2023-04-02T04:23:31.643Z,0.81
2023-04-02T04:25:58.028Z,0.87
2023-04-02T04:28:24.486Z,0.94
2023-04-02T04:30:51.008Z,1.03
2023-04-02T04:33:17.547Z,0.96
2023-04-02T04:35:44.054Z,1.01
2023-04-02T04:38:10.647Z,1.04
2023-04-02T04:40:36.996Z,1.13
2023-04-02T04:43:03.365Z,1.26
2023-04-02T04:45:29.708Z,1.07
2023-04-02T04:47:56.064Z,1.13
2023-04-02T04:50:22.419Z,1.25
2023-04-02T04:52:48.959Z,1.30
2023-04-02T04:55:15.924Z,1.42
2023-04-02T04:57:42.339Z,1.29
2023-04-02T05:00:08.645Z,1.26
2023-04-02T05:02:35.042Z,1.23
2023-04-02T05:05:01.493Z,1.42
2023-04-02T05:07:27.907Z,1.46
2023-04-02T05:09:54.228Z,1.63
2023-04-02T05:12:20.630Z,1.59
2023-04-02T05:14:47.017Z,1.61
2023-04-02T05:17:13.333Z,1.67
2023-04-02T05:19:39.639Z,1.54
2023-04-02T05:22:05.947Z,1.50
2023-04-02T05:24:32.268Z,1.66
2023-04-02T05:26:58.591Z,1.69
2023-04-02T05:29:24.907Z,1.67
2023-04-02T05:31:51.222Z,1.76
2023-04-02T05:34:17.612Z,1.73
2023-04-02T05:36:44.211Z,1.77
2023-04-02T05:39:10.782Z,1.95
2023-04-02T05:41:37.104Z,1.75
2023-04-02T05:44:03.493Z,1.73
2023-04-02T05:46:29.916Z,1.77
2023-04-02T05:48:56.323Z,2.21
2023-04-02T05:51:22.691Z,2.38
2023-04-02T05:53:49.056Z,2.22
2023-04-02T05:56:15.414Z,2.17
2023-04-02T05:58:43.917Z,2.15
2023-04-02T06:01:11.825Z,2.09
2023-04-02T06:03:38.209Z,2.24
2023-04-02T06:06:04.809Z,1.98
2023-04-02T06:08:31.204Z,1.97
2023-04-02T06:10:57.562Z,2.08
2023-04-02T06:13:23.905Z,2.02
2023-04-02T06:15:50.296Z,2.17
2023-04-02T06:18:16.623Z,2.18
2023-04-02T06:20:42.971Z,2.07
2023-04-02T06:23:09.286Z,2.01
2023-04-02T06:25:35.771Z,2.18
2023-04-02T06:28:02.220Z,2.07
2023-04-02T06:30:28.719Z,2.21
2023-04-02T06:32:56.437Z,2.02
2023-04-02T06:35:22.865Z,2.27
2023-04-02T06:37:49.418Z,2.56
2023-04-02T06:40:15.759Z,2.48
2023-04-02T06:42:42.121Z,2.40
2023-04-02T06:45:08.485Z,2.59
2023-04-02T06:47:34.855Z,2.84
2023-04-02T06:50:01.413Z,2.93
2023-04-02T06:52:27.735Z,2.94
2023-04-02T06:54:54.126Z,3.13
2023-04-02T06:57:20.608Z,3.52
2023-04-02T06:59:46.996Z,3.56
2023-04-02T07:02:13.440Z,3.69
2023-04-02T07:04:39.830Z,3.37
2023-04-02T07:07:06.187Z,3.92
2023-04-02T07:09:32.557Z,4.32
2023-04-02T07:11:58.941Z,4.07
2023-04-02T07:14:25.329Z,4.16
2023-04-02T07:16:51.670Z,4.48
2023-04-02T07:19:17.993Z,4.66
2023-04-02T07:21:44.307Z,4.25
2023-04-02T07:24:10.819Z,4.34
2023-04-02T07:26:37.147Z,4.20
2023-04-02T07:29:03.535Z,3.86
2023-04-02T07:31:29.933Z,3.62
2023-04-02T07:33:56.318Z,3.67
2023-04-02T07:36:22.782Z,3.36
2023-04-02T07:38:49.190Z,3.63
2023-04-02T07:41:15.499Z,3.09
2023-04-02T07:43:41.918Z,3.16
2023-04-02T07:46:08.343Z,2.90
2023-04-02T07:48:34.701Z,2.77
2023-04-02T07:51:01.032Z,2.81
2023-04-02T07:53:27.416Z,2.85
2023-04-02T07:55:53.816Z,2.73
2023-04-02T07:58:20.156Z,2.73
2023-04-02T08:00:46.472Z,2.74
2023-04-02T08:03:12.943Z,2.93
2023-04-02T08:05:39.382Z,2.56
2023-04-02T08:08:05.699Z,2.56
2023-04-02T08:10:32.025Z,2.70
2023-04-02T08:12:58.414Z,2.79
2023-04-02T08:15:24.764Z,2.83
2023-04-02T08:17:51.164Z,2.64
2023-04-02T08:20:17.585Z,3.04
2023-04-02T08:22:43.993Z,3.00
2023-04-02T08:25:10.489Z,2.82
2023-04-02T08:27:36.819Z,2.90
2023-04-02T08:30:03.224Z,2.78
2023-04-02T08:32:29.629Z,2.88
2023-04-02T08:34:55.985Z,2.99
2023-04-02T08:37:22.461Z,3.01
2023-04-02T08:39:48.794Z,3.19
2023-04-02T08:42:15.118Z,3.15
2023-04-02T08:44:41.442Z,3.39
2023-04-02T08:47:07.755Z,3.38
2023-04-02T08:49:34.102Z,3.74
2023-04-02T08:52:00.422Z,3.65
2023-04-02T08:54:27.816Z,3.80
2023-04-02T08:56:54.430Z,3.99
2023-04-02T08:59:20.912Z,3.79
2023-04-02T09:01:47.257Z,3.75
2023-04-02T09:04:13.694Z,3.60
2023-04-02T09:06:40.055Z,3.88
2023-04-02T09:09:06.439Z,3.72
2023-04-02T09:11:32.784Z,3.54
2023-04-02T09:13:59.103Z,3.57
2023-04-02T09:16:25.516Z,3.79
2023-04-02T09:18:51.936Z,3.69
2023-04-02T09:21:18.306Z,3.62
2023-04-02T09:23:44.701Z,3.57
2023-04-02T09:26:11.050Z,3.75
2023-04-02T09:28:37.375Z,3.47
2023-04-02T09:31:05.506Z,3.31
2023-04-02T09:33:33.142Z,3.63
2023-04-02T09:35:59.503Z,3.57
2023-04-02T09:38:25.821Z,3.68
2023-04-02T09:40:52.362Z,3.70
2023-04-02T09:43:19.082Z,3.67
2023-04-02T09:45:45.409Z,3.53
2023-04-02T09:48:11.824Z,3.80
2023-04-02T09:50:38.296Z,3.92
2023-04-02T09:53:04.833Z,3.74
2023-04-02T09:55:31.228Z,3.90
2023-04-02T09:57:58.012Z,3.77
2023-04-02T10:00:32.154Z,3.72
2023-04-02T10:02:58.983Z,3.95
2023-04-02T10:05:39.306Z,3.80
2023-04-02T10:08:06.742Z,3.87
2023-04-02T10:10:33.494Z,3.98
2023-04-02T10:12:59.996Z,4.09
2023-04-02T10:15:26.386Z,3.98
2023-04-02T10:17:52.888Z,3.97
2023-04-02T10:20:19.391Z,4.04
2023-04-02T10:22:45.746Z,3.92
2023-04-02T10:25:12.126Z,3.77
2023-04-02T10:27:38.499Z,3.51
2023-04-02T10:30:04.859Z,3.89
2023-04-02T10:32:31.282Z,3.83
2023-04-02T10:34:57.710Z,3.83
2023-04-02T10:37:24.239Z,3.52
2023-04-02T10:39:50.555Z,3.55
2023-04-02T10:42:16.917Z,3.60
2023-04-02T10:44:43.316Z,3.32
2023-04-02T10:47:09.703Z,3.51
2023-04-02T10:49:36.148Z,3.50
2023-04-02T10:52:02.745Z,3.55
2023-04-02T10:54:29.055Z,3.41
2023-04-02T10:56:55.375Z,3.26
2023-04-02T10:59:21.846Z,3.23
2023-04-02T11:01:48.204Z,3.54
2023-04-02T11:04:14.622Z,3.68
2023-04-02T11:06:41.002Z,3.52
2023-04-02T11:09:07.410Z,3.50
2023-04-02T11:11:33.789Z,3.50
2023-04-02T11:14:00.211Z,3.57
2023-04-02T11:16:26.624Z,3.38
2023-04-02T11:18:52.969Z,3.73
2023-04-02T11:21:19.285Z,3.72
2023-04-02T11:23:45.613Z,3.62
2023-04-02T11:26:11.990Z,3.96
2023-04-02T11:28:38.381Z,3.89
2023-04-02T11:31:04.790Z,3.84
2023-04-02T11:33:38.139Z,3.80
2023-04-02T11:36:06.460Z,4.17
2023-04-02T11:38:32.922Z,4.11
2023-04-02T11:40:59.285Z,4.06
2023-04-02T11:43:25.704Z,3.93
2023-04-02T11:45:53.473Z,4.23
2023-04-02T11:48:20.040Z,3.89
2023-04-02T11:50:46.817Z,4.15
2023-04-02T11:53:13.358Z,4.04
2023-04-02T11:55:39.959Z,4.10
2023-04-02T11:58:06.495Z,4.24
2023-04-02T12:00:32.855Z,4.35
2023-04-02T12:02:59.246Z,3.86
2023-04-02T12:05:25.715Z,3.82
2023-04-02T12:07:52.317Z,4.07
2023-04-02T12:10:19.113Z,3.79
2023-04-02T12:12:45.461Z,3.91
2023-04-02T12:15:11.919Z,4.05
2023-04-02T12:17:38.431Z,4.16
2023-04-02T12:20:05.949Z,4.27
2023-04-02T12:22:32.435Z,4.32
2023-04-02T12:24:58.761Z,4.02
2023-04-02T12:27:25.160Z,4.09
2023-04-02T12:29:51.497Z,4.12
2023-04-02T12:32:17.857Z,4.53
2023-04-02T12:34:44.485Z,4.28
2023-04-02T12:37:10.867Z,4.53
2023-04-02T12:39:37.212Z,4.35
2023-04-02T12:42:03.551Z,4.55
2023-04-02T12:44:30.019Z,4.54
2023-04-02T12:46:56.375Z,4.51
2023-04-02T12:49:22.750Z,4.58
2023-04-02T12:51:49.331Z,4.78
2023-04-02T12:54:15.735Z,4.82
2023-04-02T12:56:42.075Z,4.93
2023-04-02T12:59:08.452Z,4.71
2023-04-02T13:01:34.894Z,4.82
2023-04-02T13:04:01.345Z,4.80
2023-04-02T13:06:27.751Z,4.78
2023-04-02T13:08:54.322Z,5.38
2023-04-02T13:11:20.691Z,5.12
2023-04-02T13:13:47.123Z,4.99
2023-04-02T13:16:13.609Z,5.28
2023-04-02T13:18:40.064Z,5.30
2023-04-02T13:21:06.470Z,4.93
2023-04-02T13:23:32.847Z,5.17
2023-04-02T13:25:59.199Z,5.21
2023-04-02T13:28:25.661Z,5.13
2023-04-02T13:30:51.977Z,5.12
2023-04-02T13:33:18.384Z,4.99
2023-04-02T13:35:44.785Z,4.73
2023-04-02T13:38:11.145Z,4.82
2023-04-02T13:40:37.879Z,4.82
2023-04-02T13:43:04.546Z,5.00
2023-04-02T13:45:30.913Z,4.80
2023-04-02T13:47:57.325Z,4.56
2023-04-02T13:50:23.865Z,4.68
2023-04-02T13:52:50.247Z,4.38
2023-04-02T13:55:16.633Z,4.42
2023-04-02T13:57:43.001Z,4.63
2023-04-02T14:00:09.372Z,4.74
2023-04-02T14:02:35.849Z,4.50
2023-04-02T14:05:02.273Z,4.34
2023-04-02T14:07:28.597Z,4.26
2023-04-02T14:09:55.032Z,4.39
2023-04-02T14:12:21.678Z,4.09
2023-04-02T14:14:48.073Z,4.24
2023-04-02T14:17:14.445Z,4.18
2023-04-02T14:19:40.911Z,4.41
2023-04-02T14:22:07.291Z,4.13
2023-04-02T14:24:33.710Z,4.33
2023-04-02T14:27:00.107Z,4.21
2023-04-02T14:29:28.212Z,4.33
2023-04-02T14:31:55.682Z,4.02
2023-04-02T14:34:22.169Z,4.07
2023-04-02T14:36:48.543Z,4.00
2023-04-02T14:39:14.941Z,3.62
2023-04-02T14:41:41.265Z,4.06
2023-04-02T14:44:07.645Z,4.09
2023-04-02T14:46:36.826Z,4.06
2023-04-02T14:49:03.742Z,3.94
2023-04-02T14:51:30.127Z,4.13
2023-04-02T14:53:56.522Z,3.99
2023-04-02T14:56:23.056Z,3.65
2023-04-02T14:58:49.385Z,3.87
2023-04-02T15:01:15.733Z,3.78
2023-04-02T15:03:42.119Z,3.80
2023-04-02T15:06:08.455Z,3.76
2023-04-02T15:08:35.006Z,3.64
2023-04-02T15:11:04.266Z,3.52
2023-04-02T15:13:32.297Z,3.97
2023-04-02T15:15:58.670Z,3.73
2023-04-02T15:18:25.064Z,3.75
2023-04-02T15:20:51.433Z,3.55
2023-04-02T15:23:17.774Z,3.60
2023-04-02T15:25:44.143Z,3.64
2023-04-02T15:28:10.566Z,3.86
2023-04-02T15:30:37.252Z,3.57
2023-04-02T15:33:03.927Z,3.52
2023-04-02T15:35:30.394Z,3.72
2023-04-02T15:37:56.868Z,3.67
2023-04-02T15:40:23.236Z,3.62
2023-04-02T15:42:49.697Z,3.60
2023-04-02T15:45:16.296Z,3.59
2023-04-02T15:47:42.720Z,3.71
2023-04-02T15:50:09.368Z,3.76
2023-04-02T15:52:35.745Z,3.74
2023-04-02T15:55:02.103Z,3.71
2023-04-02T15:57:28.466Z,3.62
2023-04-02T15:59:54.812Z,3.64
2023-04-02T16:02:21.331Z,3.77
2023-04-02T16:04:47.663Z,3.91
2023-04-02T16:07:14.040Z,3.84
2023-04-02T16:09:40.427Z,3.46
2023-04-02T16:12:06.826Z,3.94
2023-04-02T16:14:33.200Z,3.72
2023-04-02T16:17:02.106Z,3.92
2023-04-02T16:19:30.284Z,3.82
2023-04-02T16:21:56.648Z,3.54
2023-04-02T16:24:23.007Z,3.55
2023-04-02T16:26:50.399Z,3.66
2023-04-02T16:29:18.382Z,3.92
2023-04-02T16:31:44.755Z,3.76
2023-04-02T16:34:11.157Z,3.66
2023-04-02T16:36:37.557Z,4.07
2023-04-02T16:39:04.162Z,3.78
2023-04-02T16:41:30.512Z,3.91
2023-04-02T16:43:57.056Z,3.71
2023-04-02T16:46:38.333Z,3.82
2023-04-02T16:49:05.878Z,3.94
2023-04-02T16:51:32.716Z,4.07
2023-04-02T16:54:02.321Z,4.25
2023-04-02T16:56:29.011Z,4.38
2023-04-02T16:58:55.349Z,4.27
2023-04-02T17:01:21.730Z,3.94
2023-04-02T17:03:48.293Z,4.05
2023-04-02T17:06:14.988Z,4.00
2023-04-02T17:08:41.370Z,3.89
2023-04-02T17:11:07.762Z,4.03
2023-04-02T17:13:34.165Z,4.04
2023-04-02T17:16:00.526Z,4.04
2023-04-02T17:18:26.902Z,4.20
2023-04-02T17:20:53.244Z,4.02
2023-04-02T17:23:19.562Z,3.68
2023-04-02T17:25:45.962Z,3.96
2023-04-02T17:28:12.287Z,4.12
2023-04-02T17:30:39.026Z,4.01
2023-04-02T17:33:05.473Z,4.14
2023-04-02T17:35:31.860Z,4.15
2023-04-02T17:37:58.320Z,4.17
2023-04-02T17:40:24.657Z,4.33
2023-04-02T17:42:51.025Z,4.29
2023-04-02T17:45:17.405Z,4.42
2023-04-02T17:47:43.791Z,4.44
2023-04-02T17:50:10.178Z,4.17
2023-04-02T17:52:36.577Z,4.41
2023-04-02T17:55:02.906Z,4.26
2023-04-02T17:57:31.424Z,4.30
2023-04-02T17:59:57.948Z,4.46
2023-04-02T18:02:24.440Z,4.57
2023-04-02T18:04:50.803Z,4.86
2023-04-02T18:07:17.116Z,4.86
2023-04-02T18:09:43.489Z,4.76
2023-04-02T18:12:09.848Z,4.96
2023-04-02T18:14:36.180Z,4.76
2023-04-02T18:17:02.552Z,5.23
2023-04-02T18:19:30.562Z,5.12
2023-04-02T18:21:58.098Z,5.29
2023-04-02T18:24:24.856Z,5.63
2023-04-02T18:26:51.292Z,5.68
2023-04-02T18:29:17.664Z,6.01
2023-04-02T18:31:44.039Z,6.61
2023-04-02T18:34:10.656Z,6.40
2023-04-02T18:36:37.026Z,6.50
2023-04-02T18:39:03.425Z,6.60
2023-04-02T18:41:29.742Z,6.76
2023-04-02T18:43:57.516Z,6.96
2023-04-02T18:46:24.082Z,6.82
2023-04-02T18:48:50.476Z,6.71
2023-04-02T18:51:16.992Z,7.01
2023-04-02T18:53:43.372Z,7.14
2023-04-02T18:56:11.893Z,6.85
2023-04-02T18:58:38.414Z,7.20
2023-04-02T19:01:04.820Z,6.91
2023-04-02T19:03:31.251Z,7.16
2023-04-02T19:05:57.869Z,7.29
2023-04-02T19:08:24.315Z,7.16
2023-04-02T19:10:50.696Z,7.34
2023-04-02T19:13:17.084Z,7.01
2023-04-02T19:15:43.444Z,7.10
2023-04-02T19:18:09.847Z,7.37
2023-04-02T19:20:36.353Z,7.00
2023-04-02T19:23:02.930Z,6.99
2023-04-02T19:25:29.332Z,7.35
2023-04-02T19:27:55.841Z,7.11
2023-04-02T19:30:22.155Z,7.30
2023-04-02T19:32:48.545Z,7.26
2023-04-02T19:35:14.936Z,7.11
2023-04-02T19:37:41.275Z,7.39
2023-04-02T19:40:07.678Z,7.28
2023-04-02T19:42:34.085Z,7.16
2023-04-02T19:45:00.491Z,7.17
2023-04-02T19:47:27.113Z,7.20
2023-04-02T19:49:53.526Z,7.23
2023-04-02T19:52:19.907Z,7.02
2023-04-02T19:54:46.256Z,7.14
2023-04-02T19:57:12.618Z,7.14
2023-04-02T19:59:39.006Z,7.23
2023-04-02T20:02:05.375Z,6.97
2023-04-02T20:04:31.963Z,7.07
2023-04-02T20:06:58.335Z,7.42
2023-04-02T20:09:24.697Z,7.16
2023-04-02T20:11:51.121Z,6.98
2023-04-02T20:14:17.524Z,6.86
2023-04-02T20:16:45.382Z,7.40
2023-04-02T20:19:12.238Z,7.08
2023-04-02T20:21:38.697Z,7.07
2023-04-02T20:24:05.275Z,7.37
2023-04-02T20:26:31.646Z,7.33
2023-04-02T20:28:57.978Z,7.78
2023-04-02T20:31:24.401Z,7.66
2023-04-02T20:33:50.930Z,7.34
2023-04-02T20:36:17.320Z,7.21
2023-04-02T20:38:43.663Z,7.21
2023-04-02T20:41:10.097Z,7.72
2023-04-02T20:43:36.514Z,7.51
2023-04-02T20:46:02.957Z,7.88
2023-04-02T20:48:29.324Z,7.32
2023-04-02T20:50:55.768Z,7.50
2023-04-02T20:53:22.154Z,7.68
2023-04-02T20:55:48.487Z,7.55
2023-04-02T20:58:14.811Z,7.74
2023-04-02T21:00:41.191Z,7.77
2023-04-02T21:03:07.787Z,7.94
2023-04-02T21:05:34.242Z,7.94
2023-04-02T21:08:00.682Z,7.52
2023-04-02T21:10:27.029Z,7.67
2023-04-02T21:12:53.370Z,7.57
2023-04-02T21:15:19.827Z,7.43
2023-04-02T21:17:46.223Z,7.67
2023-04-02T21:20:12.745Z,7.74
2023-04-02T21:22:39.178Z,7.55
2023-04-02T21:25:05.522Z,7.44
2023-04-02T21:27:31.824Z,7.21
2023-04-02T21:29:58.163Z,7.41
2023-04-02T21:32:24.588Z,7.15
2023-04-02T21:34:50.941Z,7.51
2023-04-02T21:37:17.282Z,7.36
2023-04-02T21:39:43.641Z,7.30
2023-04-02T21:42:10.091Z,7.57
2023-04-02T21:44:36.453Z,7.21
2023-04-02T21:47:02.808Z,7.50
2023-04-02T21:49:29.249Z,7.41
2023-04-02T21:51:55.838Z,7.16
2023-04-02T21:54:22.174Z,7.52
2023-04-02T21:56:48.599Z,7.15
2023-04-02T21:59:14.964Z,6.98
2023-04-02T22:01:41.369Z,7.15
2023-04-02T22:04:07.991Z,6.94
2023-04-02T22:06:34.393Z,7.02
2023-04-02T22:09:00.781Z,6.96
2023-04-02T22:11:27.123Z,6.90
2023-04-02T22:13:53.584Z,6.99
2023-04-02T22:16:19.948Z,7.01
2023-04-02T22:18:46.336Z,6.45
2023-04-02T22:21:12.710Z,6.53
2023-04-02T22:23:39.099Z,6.71
2023-04-02T22:26:05.541Z,6.55
2023-04-02T22:28:31.915Z,6.45
2023-04-02T22:30:58.276Z,6.44
2023-04-02T22:33:24.631Z,6.57
2023-04-02T22:35:51.058Z,6.73
2023-04-02T22:38:17.398Z,6.38
2023-04-02T22:40:43.771Z,6.33
2023-04-02T22:43:10.096Z,6.00
2023-04-02T22:45:36.466Z,6.06
2023-04-02T22:48:02.926Z,5.93
2023-04-02T22:50:29.247Z,5.99
2023-04-02T22:52:55.609Z,6.11
2023-04-02T22:55:21.988Z,6.15
2023-04-02T22:57:48.385Z,6.05
2023-04-02T23:00:14.768Z,5.95
2023-04-02T23:02:41.132Z,5.90
2023-04-02T23:05:07.488Z,5.95
2023-04-02T23:07:33.889Z,6.15
2023-04-02T23:10:00.271Z,5.99
2023-04-02T23:12:26.588Z,5.67
2023-04-02T23:14:52.981Z,5.94
2023-04-02T23:17:19.399Z,5.76
2023-04-02T23:19:45.771Z,5.88
2023-04-02T23:22:12.311Z,5.81
2023-04-02T23:24:38.728Z,5.42
2023-04-02T23:27:05.049Z,5.94
2023-04-02T23:29:31.426Z,5.61
2023-04-02T23:31:58.117Z,5.52
2023-04-02T23:34:24.460Z,5.54
2023-04-02T23:36:50.770Z,5.41
2023-04-02T23:39:17.117Z,5.78
2023-04-02T23:41:43.457Z,5.28
2023-04-02T23:44:09.767Z,5.45
2023-04-02T23:46:36.155Z,5.25
2023-04-02T23:49:02.580Z,5.19
2023-04-02T23:51:28.902Z,5.30
2023-04-02T23:53:55.265Z,5.08
2023-04-02T23:56:21.620Z,5.19
2023-04-02T23:58:47.976Z,5.20
